createdAt,value
2022-09-12T00:02:00.816Z,23.50
2022-09-12T00:04:31.297Z,23.50
2022-09-12T00:07:02.170Z,23.58
2022-09-12T00:09:32.344Z,23.63
2022-09-12T00:12:02.326Z,23.67
2022-09-12T00:14:32.455Z,23.73
2022-09-12T00:17:03.281Z,23.77
2022-09-12T00:19:35.705Z,23.81
2022-09-12T00:22:05.901Z,23.87
2022-09-12T00:24:35.996Z,23.87
2022-09-12T00:27:08.881Z,23.91
2022-09-12T00:29:39.182Z,23.93
2022-09-12T00:32:09.340Z,23.93
2022-09-12T00:34:43.126Z,23.93
2022-09-12T00:37:13.400Z,23.95
2022-09-12T00:39:43.559Z,23.96
2022-09-12T00:42:14.876Z,23.98
2022-09-12T00:44:49.162Z,24.00
2022-09-12T00:47:26.714Z,24.03
2022-09-12T00:50:19.861Z,24.09
2022-09-12T00:53:04.351Z,24.11
2022-09-12T00:55:40.431Z,24.13
2022-09-12T00:58:12.419Z,24.14
2022-09-12T01:00:43.060Z,24.16
2022-09-12T01:03:20.760Z,24.19
2022-09-12T01:06:21.409Z,24.24
2022-09-12T01:08:53.143Z,24.31
2022-09-12T01:11:24.472Z,24.34
2022-09-12T01:13:54.508Z,24.43
2022-09-12T01:16:24.619Z,24.46
2022-09-12T01:18:57.438Z,24.54
2022-09-12T01:21:40.781Z,24.61
2022-09-12T01:24:29.214Z,24.69
2022-09-12T01:27:20.333Z,24.76
2022-09-12T01:30:21.361Z,24.85
2022-09-12T01:33:22.784Z,24.92
2022-09-12T01:36:10.006Z,25.01
2022-09-12T01:38:52.392Z,25.07
2022-09-12T01:41:25.329Z,25.14
2022-09-12T01:44:10.008Z,25.19
2022-09-12T01:47:00.908Z,25.26
2022-09-12T01:49:53.364Z,25.34
2022-09-12T01:52:45.952Z,25.39
2022-09-12T01:55:18.681Z,25.46
2022-09-12T01:58:07.034Z,25.51
2022-09-12T02:00:44.878Z,25.56
2022-09-12T02:03:21.313Z,25.59
2022-09-12T02:06:09.226Z,25.67
2022-09-12T02:08:54.822Z,25.71
2022-09-12T02:11:25.063Z,25.79
2022-09-12T02:14:05.493Z,25.83
2022-09-12T02:17:15.347Z,25.91
2022-09-12T02:20:17.808Z,25.98
2022-09-12T02:23:05.570Z,26.03
2022-09-12T02:25:39.685Z,26.07
2022-09-12T02:28:12.914Z,26.15
2022-09-12T02:30:52.768Z,26.21
2022-09-12T02:33:30.723Z,26.25
2022-09-12T02:36:32.293Z,26.31
2022-09-12T02:39:03.428Z,26.36
2022-09-12T02:41:34.453Z,26.39
2022-09-12T02:44:05.338Z,26.42
2022-09-12T02:46:53.520Z,26.47
2022-09-12T02:49:24.591Z,26.52
2022-09-12T02:51:54.770Z,26.57
2022-09-12T02:54:25.671Z,26.62
2022-09-12T02:56:56.039Z,26.64
2022-09-12T02:59:27.348Z,26.66
2022-09-12T03:02:24.190Z,26.68
2022-09-12T03:05:14.850Z,26.73
2022-09-12T03:08:07.917Z,26.78
2022-09-12T03:11:08.635Z,26.83
2022-09-12T03:13:56.634Z,26.88
2022-09-12T03:16:50.686Z,26.92
2022-09-12T03:19:34.889Z,26.96
2022-09-12T03:22:31.280Z,27.00
2022-09-12T03:25:18.248Z,27.05
2022-09-12T03:27:54.458Z,27.06
2022-09-12T03:30:24.760Z,27.10
2022-09-12T03:32:56.809Z,27.15
2022-09-12T03:35:27.826Z,27.19
2022-09-12T03:37:57.968Z,27.24
2022-09-12T03:40:28.170Z,27.29
2022-09-12T03:42:58.198Z,27.31
2022-09-12T03:45:28.353Z,27.33
2022-09-12T03:47:58.741Z,27.36
2022-09-12T03:50:29.171Z,27.40
2022-09-12T03:53:01.588Z,27.44
2022-09-12T03:55:32.394Z,27.41
2022-09-12T03:58:02.393Z,27.44
2022-09-12T04:00:33.026Z,27.48
2022-09-12T04:03:03.115Z,27.52
2022-09-12T04:05:33.587Z,27.55
2022-09-12T04:08:04.043Z,27.61
2022-09-12T04:10:34.509Z,27.65
2022-09-12T04:13:04.631Z,27.68
2022-09-12T04:15:35.236Z,27.71
2022-09-12T04:18:06.265Z,27.75
2022-09-12T04:20:41.721Z,27.79
2022-09-12T04:23:12.211Z,27.79
2022-09-12T04:25:43.575Z,27.80
2022-09-12T04:28:13.921Z,27.83
2022-09-12T04:30:51.112Z,27.86
2022-09-12T04:33:30.408Z,27.91
2022-09-12T04:36:09.224Z,27.93
2022-09-12T04:38:40.994Z,27.94
2022-09-12T04:41:20.863Z,27.96
2022-09-12T04:46:55.210Z,27.93
2022-09-12T04:49:25.714Z,27.94
2022-09-12T04:52:03.484Z,27.96
2022-09-12T04:54:35.039Z,27.98
2022-09-12T04:57:06.017Z,28.03
2022-09-12T04:59:37.821Z,28.07
2022-09-12T05:02:08.679Z,28.12
2022-09-12T05:04:39.446Z,28.18
2022-09-12T05:07:11.273Z,28.21
2022-09-12T05:09:43.079Z,28.24
2022-09-12T05:12:15.747Z,28.25
2022-09-12T05:14:47.106Z,28.27
2022-09-12T05:17:18.060Z,28.28
2022-09-12T05:19:50.146Z,28.31
2022-09-12T05:22:21.729Z,28.36
2022-09-12T05:24:53.247Z,28.39
2022-09-12T05:27:24.363Z,28.42
2022-09-12T05:29:55.121Z,28.40
2022-09-12T05:32:26.867Z,28.46
2022-09-12T05:34:57.742Z,28.48
2022-09-12T05:37:28.501Z,28.52
2022-09-12T05:40:00.041Z,28.52
2022-09-12T05:42:32.113Z,28.54
2022-09-12T05:45:03.003Z,28.53
2022-09-12T05:47:34.029Z,28.52
2022-09-12T05:50:12.189Z,28.51
2022-09-12T05:52:43.712Z,28.53
2022-09-12T05:55:15.647Z,28.57
2022-09-12T05:57:49.813Z,28.61
2022-09-12T06:00:22.160Z,28.62
2022-09-12T06:02:56.246Z,28.64
2022-09-12T06:05:27.651Z,28.63
2022-09-12T06:07:58.638Z,28.61
2022-09-12T06:10:30.087Z,28.62
2022-09-12T06:13:00.441Z,28.64
2022-09-12T06:15:31.042Z,28.65
2022-09-12T06:18:02.042Z,28.69
2022-09-12T06:20:33.867Z,28.72
2022-09-12T06:23:04.846Z,28.77
2022-09-12T06:25:35.480Z,28.81
2022-09-12T06:28:06.945Z,28.85
2022-09-12T06:30:37.067Z,28.87
2022-09-12T06:33:07.648Z,28.88
2022-09-12T06:35:43.989Z,28.92
2022-09-12T06:38:14.701Z,28.95
2022-09-12T06:40:46.269Z,28.95
2022-09-12T06:43:18.144Z,28.94
2022-09-12T06:45:54.167Z,28.97
2022-09-12T06:48:27.335Z,29.00
2022-09-12T06:51:09.403Z,29.06
2022-09-12T06:58:18.659Z,29.07
2022-09-12T07:01:16.868Z,29.10
2022-09-12T07:12:02.402Z,29.21
2022-09-12T07:14:33.562Z,29.25
2022-09-12T07:17:04.969Z,29.27
2022-09-12T07:19:36.418Z,29.34
2022-09-12T07:22:07.698Z,29.35
2022-09-12T07:24:38.849Z,29.39
2022-09-12T07:27:10.150Z,29.42
2022-09-12T07:29:40.514Z,29.43
2022-09-12T07:32:11.240Z,29.44
2022-09-12T07:34:42.034Z,29.46
2022-09-12T07:37:14.174Z,29.50
2022-09-12T07:39:44.820Z,29.54
2022-09-12T07:42:16.278Z,29.56
2022-09-12T07:44:48.362Z,29.55
2022-09-12T07:47:19.628Z,29.61
2022-09-12T07:49:50.230Z,29.65
2022-09-12T07:52:24.214Z,29.68
2022-09-12T07:54:55.214Z,29.68
2022-09-12T07:57:26.468Z,29.74
2022-09-12T07:59:57.111Z,29.77
2022-09-12T08:02:27.708Z,29.78
2022-09-12T08:04:58.223Z,29.79
2022-09-12T08:07:29.744Z,29.79
2022-09-12T08:10:01.360Z,29.77
2022-09-12T08:12:33.477Z,29.80
2022-09-12T08:15:03.627Z,29.79
2022-09-12T08:17:33.743Z,29.81
2022-09-12T08:20:04.143Z,29.81
2022-09-12T08:22:34.696Z,29.78
2022-09-12T08:25:05.809Z,29.76
2022-09-12T08:27:37.337Z,29.76
2022-09-12T08:30:08.647Z,29.75
2022-09-12T08:32:38.796Z,29.75
2022-09-12T08:35:09.309Z,29.73
2022-09-12T08:37:39.488Z,29.73
2022-09-12T08:40:13.904Z,29.71
2022-09-12T08:43:05.919Z,29.70
2022-09-12T08:45:44.956Z,29.69
2022-09-12T08:48:16.542Z,29.65
2022-09-12T08:50:50.064Z,29.62
2022-09-12T08:53:25.789Z,29.60
2022-09-12T08:56:00.869Z,29.55
2022-09-12T08:58:41.736Z,29.51
2022-09-12T09:01:21.126Z,29.48
2022-09-12T09:04:18.849Z,29.44
2022-09-12T09:06:58.410Z,29.39
2022-09-12T09:09:46.478Z,29.34
2022-09-12T09:12:18.996Z,29.31
2022-09-12T09:15:30.470Z,29.27
2022-09-12T09:18:23.965Z,29.21
2022-09-12T09:21:08.192Z,29.17
2022-09-12T09:23:45.138Z,29.12
2022-09-12T09:26:19.339Z,29.07
2022-09-12T09:28:58.354Z,29.03
2022-09-12T09:31:32.995Z,28.96
2022-09-12T09:34:03.322Z,28.91
2022-09-12T09:36:57.810Z,28.89
2022-09-12T09:39:36.923Z,28.84
2022-09-12T09:42:29.969Z,28.79
2022-09-12T09:45:13.461Z,28.72
2022-09-12T09:47:46.824Z,28.65
2022-09-12T09:50:20.610Z,28.62
2022-09-12T09:52:53.918Z,28.56
2022-09-12T09:55:31.320Z,28.53
2022-09-12T09:58:02.121Z,28.47
2022-09-12T10:00:38.060Z,28.44
2022-09-12T10:03:13.918Z,28.39
2022-09-12T10:05:54.245Z,28.35
2022-09-12T10:08:29.427Z,28.30
2022-09-12T10:11:08.228Z,28.27
2022-09-12T10:13:59.229Z,28.22
2022-09-12T10:16:32.696Z,28.17
2022-09-12T10:19:05.655Z,28.12
2022-09-12T10:21:41.037Z,28.08
2022-09-12T10:24:27.226Z,28.02
2022-09-12T10:27:10.801Z,27.97
2022-09-12T10:29:49.885Z,27.89
2022-09-12T10:32:30.671Z,27.81
2022-09-12T10:35:10.654Z,27.75
2022-09-12T10:37:42.479Z,27.70
2022-09-12T10:40:27.288Z,27.64
2022-09-12T10:43:00.550Z,27.62
2022-09-12T10:45:39.446Z,27.57
2022-09-12T10:48:33.831Z,27.53
2022-09-12T10:51:04.460Z,27.45
2022-09-12T10:53:43.083Z,27.39
2022-09-12T10:56:26.168Z,27.31
2022-09-12T10:59:33.658Z,27.25
2022-09-12T11:02:17.602Z,27.17
2022-09-12T11:05:20.671Z,27.09
2022-09-12T11:08:18.609Z,27.03
2022-09-12T11:10:59.452Z,26.97
2022-09-12T11:14:06.097Z,26.92
2022-09-12T11:16:48.966Z,26.88
2022-09-12T11:19:31.047Z,26.84
2022-09-12T11:22:20.923Z,26.81
2022-09-12T11:25:13.456Z,26.75
2022-09-12T11:28:04.542Z,26.69
2022-09-12T11:31:00.833Z,26.64
2022-09-12T11:33:56.504Z,26.58
2022-09-12T11:36:30.467Z,26.54
2022-09-12T11:39:17.525Z,26.50
2022-09-12T11:41:52.863Z,26.45
2022-09-12T11:44:25.542Z,26.45
2022-09-12T11:46:55.973Z,26.44
2022-09-12T11:49:35.267Z,26.40
2022-09-12T11:52:21.646Z,26.37
2022-09-12T11:54:54.670Z,26.33
2022-09-12T11:57:43.440Z,26.29
2022-09-12T12:00:35.145Z,26.27
2022-09-12T12:03:19.773Z,26.26
2022-09-12T12:05:58.270Z,26.25
2022-09-12T12:08:32.282Z,26.23
2022-09-12T12:11:05.229Z,26.19
2022-09-12T12:13:46.927Z,26.20
2022-09-12T12:16:21.073Z,26.21
2022-09-12T12:18:58.807Z,26.22
2022-09-12T12:21:33.017Z,26.22
2022-09-12T12:24:08.050Z,26.22
2022-09-12T12:26:44.488Z,26.21
2022-09-12T12:29:38.297Z,26.19
2022-09-12T12:32:13.353Z,26.12
2022-09-12T12:34:46.761Z,26.07
2022-09-12T12:37:23.700Z,26.07
2022-09-12T12:40:02.273Z,26.08
2022-09-12T12:42:36.635Z,26.07
2022-09-12T12:45:24.150Z,26.07
2022-09-12T12:48:21.990Z,26.05
2022-09-12T12:51:31.215Z,26.06
2022-09-12T12:54:12.938Z,26.05
2022-09-12T12:56:46.805Z,26.11
2022-09-12T12:59:25.873Z,26.11
2022-09-12T13:02:04.199Z,26.11
2022-09-12T13:04:37.005Z,26.11
2022-09-12T13:07:13.205Z,26.11
2022-09-12T13:09:54.392Z,26.12
2022-09-12T13:12:38.978Z,26.10
2022-09-12T13:15:37.783Z,26.11
2022-09-12T13:18:15.973Z,26.08
2022-09-12T13:21:10.990Z,26.06
2022-09-12T13:23:42.636Z,26.02
2022-09-12T13:26:44.210Z,26.00
2022-09-12T13:29:23.070Z,25.97
2022-09-12T13:32:04.853Z,25.95
2022-09-12T13:34:54.048Z,25.91
2022-09-12T13:37:33.502Z,25.89
2022-09-12T13:40:35.850Z,25.88
2022-09-12T13:43:17.024Z,25.83
2022-09-12T13:45:49.847Z,25.80
2022-09-12T13:48:25.887Z,25.77
2022-09-12T13:50:59.669Z,25.76
2022-09-12T13:53:42.053Z,25.69
2022-09-12T13:56:19.647Z,25.62
2022-09-12T13:59:00.950Z,25.55
2022-09-12T14:01:46.039Z,25.53
2022-09-12T14:04:36.558Z,25.52
2022-09-12T14:07:14.522Z,25.50
2022-09-12T14:09:48.492Z,25.49
2022-09-12T14:12:30.971Z,25.47
2022-09-12T14:15:02.131Z,25.44
2022-09-12T14:17:38.675Z,25.43
2022-09-12T14:20:16.204Z,25.40
2022-09-12T14:22:51.132Z,25.41
2022-09-12T14:25:27.373Z,25.41
2022-09-12T14:27:59.982Z,25.43
2022-09-12T14:30:33.006Z,25.42
2022-09-12T14:33:13.840Z,25.41
2022-09-12T14:35:51.486Z,25.38
2022-09-12T14:38:37.790Z,25.37
2022-09-12T14:41:15.131Z,25.37
2022-09-12T14:43:55.134Z,25.34
2022-09-12T14:46:43.065Z,25.33
2022-09-12T14:49:23.112Z,25.31
2022-09-12T14:51:53.909Z,25.29
2022-09-12T14:54:30.843Z,25.29
2022-09-12T14:57:05.836Z,25.29
2022-09-12T14:59:44.298Z,25.28
2022-09-12T15:02:27.187Z,25.29
2022-09-12T15:05:23.038Z,25.29
2022-09-12T15:07:58.412Z,25.28
2022-09-12T15:10:39.646Z,25.28
2022-09-12T15:13:18.058Z,25.29
2022-09-12T15:16:02.962Z,25.30
2022-09-12T15:18:33.560Z,25.29
2022-09-12T15:21:07.435Z,25.30
2022-09-12T15:23:47.623Z,25.29
2022-09-12T15:26:24.190Z,25.31
2022-09-12T15:28:55.089Z,25.29
2022-09-12T15:31:32.396Z,25.30
2022-09-12T15:34:05.203Z,25.30
2022-09-12T15:36:35.717Z,25.30
2022-09-12T15:39:06.404Z,25.28
2022-09-12T15:41:39.722Z,25.30
2022-09-12T15:44:15.707Z,25.28
2022-09-12T15:46:46.506Z,25.26
2022-09-12T15:49:17.005Z,25.25
2022-09-12T15:51:47.291Z,25.23
2022-09-12T15:54:23.865Z,25.24
2022-09-12T15:56:54.476Z,25.20
2022-09-12T15:59:25.119Z,25.21
2022-09-12T16:01:55.709Z,25.17
2022-09-12T16:04:29.965Z,25.18
2022-09-12T16:07:00.861Z,25.16
2022-09-12T16:09:31.826Z,25.14
2022-09-12T16:12:03.006Z,25.12
2022-09-12T16:14:36.375Z,25.11
2022-09-12T16:17:09.725Z,25.05
2022-09-12T16:19:40.674Z,25.09
2022-09-12T16:22:11.335Z,25.06
2022-09-12T16:24:41.812Z,25.04
2022-09-12T16:27:13.724Z,25.01
2022-09-12T16:29:44.252Z,25.00
2022-09-12T16:32:14.523Z,24.98
2022-09-12T16:34:44.845Z,24.96
2022-09-12T16:37:17.683Z,24.92
2022-09-12T16:39:47.677Z,24.94
2022-09-12T16:42:21.936Z,24.92
2022-09-12T16:44:52.023Z,24.90
2022-09-12T16:47:22.382Z,24.88
2022-09-12T16:49:52.675Z,24.83
2022-09-12T16:52:22.719Z,24.81
2022-09-12T16:54:52.801Z,24.76
2022-09-12T16:57:22.974Z,24.71
2022-09-12T16:59:54.526Z,24.68
2022-09-12T17:02:25.550Z,24.69
2022-09-12T17:04:55.802Z,24.65
2022-09-12T17:07:25.821Z,24.63
2022-09-12T17:09:55.898Z,24.59
2022-09-12T17:12:25.989Z,24.56
2022-09-12T17:14:55.961Z,24.53
2022-09-12T17:17:26.012Z,24.49
2022-09-12T17:19:56.039Z,24.49
2022-09-12T17:22:26.034Z,24.47
2022-09-12T17:24:55.989Z,24.47
2022-09-12T17:27:26.541Z,24.44
2022-09-12T17:29:56.637Z,24.39
2022-09-12T17:32:26.682Z,24.36
2022-09-12T17:34:56.675Z,24.33
2022-09-12T17:37:27.409Z,24.31
2022-09-12T17:39:59.146Z,24.30
2022-09-12T17:42:29.854Z,24.26
2022-09-12T17:45:01.527Z,24.23
2022-09-12T17:47:32.684Z,24.21
2022-09-12T17:50:30.017Z,24.18
2022-09-12T17:52:54.272Z,24.15
2022-09-12T17:55:24.675Z,24.11
2022-09-12T17:57:54.649Z,24.09
2022-09-12T18:00:44.438Z,24.07
2022-09-12T18:03:15.574Z,24.06
2022-09-12T18:05:55.731Z,24.03
2022-09-12T18:08:27.413Z,24.00
2022-09-12T18:11:06.948Z,23.98
2022-09-12T18:13:39.809Z,23.94
2022-09-12T18:16:12.293Z,23.92
2022-09-12T18:18:43.117Z,23.91
2022-09-12T18:21:15.172Z,23.90
2022-09-12T18:23:45.792Z,23.89
2022-09-12T18:26:16.331Z,23.87
2022-09-12T18:28:47.361Z,23.87
2022-09-12T18:31:20.637Z,23.83
2022-09-12T18:33:51.664Z,23.80
2022-09-12T18:36:23.095Z,23.80
2022-09-12T18:38:53.453Z,23.80
2022-09-12T18:41:27.610Z,23.78
2022-09-12T18:44:02.497Z,23.78
2022-09-12T18:46:35.441Z,23.73
2022-09-12T18:49:06.881Z,23.75
2022-09-12T18:51:41.318Z,23.74
2022-09-12T18:54:15.787Z,23.76
2022-09-12T18:56:47.098Z,23.71
2022-09-12T18:59:17.858Z,23.72
2022-09-12T19:01:48.602Z,23.69
2022-09-12T19:04:19.205Z,23.67
2022-09-12T19:06:50.657Z,23.65
2022-09-12T19:09:22.363Z,23.61
2022-09-12T19:11:53.918Z,23.56
2022-09-12T19:14:27.396Z,23.57
2022-09-12T19:16:58.288Z,23.52
2022-09-12T19:19:28.594Z,23.47
2022-09-12T19:21:58.835Z,23.44
2022-09-12T19:24:29.008Z,23.39
2022-09-12T19:26:59.742Z,23.37
2022-09-12T19:29:29.773Z,23.34
2022-09-12T19:31:59.757Z,23.31
2022-09-12T19:34:30.181Z,23.29
2022-09-12T19:37:00.814Z,23.23
2022-09-12T19:39:30.987Z,23.24
2022-09-12T19:42:01.247Z,23.22
2022-09-12T19:44:32.366Z,23.17
2022-09-12T19:47:02.588Z,23.16
2022-09-12T19:49:32.689Z,23.13
2022-09-12T19:52:02.794Z,23.15
2022-09-12T19:54:32.758Z,23.14
2022-09-12T19:57:02.753Z,23.12
2022-09-12T19:59:32.782Z,23.12
2022-09-12T20:02:02.959Z,23.11
2022-09-12T20:04:36.520Z,23.10
2022-09-12T20:07:06.939Z,23.06
2022-09-12T20:09:37.568Z,23.04
2022-09-12T20:12:07.925Z,23.01
2022-09-12T20:14:38.445Z,22.96
2022-09-12T20:17:09.351Z,22.93
2022-09-12T20:19:40.098Z,22.91
2022-09-12T20:22:10.409Z,22.87
2022-09-12T20:24:40.375Z,22.85
2022-09-12T20:27:10.721Z,22.84
2022-09-12T20:29:40.706Z,22.82
2022-09-12T20:32:11.560Z,22.81
2022-09-12T20:34:41.668Z,22.79
2022-09-12T20:37:11.695Z,22.74
2022-09-12T20:39:42.121Z,22.72
2022-09-12T20:42:12.349Z,22.71
2022-09-12T20:44:42.569Z,22.70
2022-09-12T20:47:12.638Z,22.64
2022-09-12T20:49:42.583Z,22.61
2022-09-12T20:52:11.952Z,22.63
2022-09-12T20:54:41.931Z,22.60
2022-09-12T20:57:11.901Z,22.58
2022-09-12T20:59:43.833Z,22.56
2022-09-12T21:02:18.659Z,22.53
2022-09-12T21:04:49.385Z,22.50
2022-09-12T21:07:19.748Z,22.48
2022-09-12T21:09:49.794Z,22.46
2022-09-12T21:12:19.775Z,22.50
2022-09-12T21:14:49.779Z,22.46
2022-09-12T21:17:19.683Z,22.45
2022-09-12T21:19:49.615Z,22.45
2022-09-12T21:22:22.896Z,22.45
2022-09-12T21:24:52.961Z,22.42
2022-09-12T21:27:22.913Z,22.41
2022-09-12T21:29:53.580Z,22.37
2022-09-12T21:32:24.968Z,22.30
2022-09-12T21:34:55.001Z,22.32
2022-09-12T21:37:24.974Z,22.31
2022-09-12T21:39:55.433Z,22.33
2022-09-12T21:42:25.486Z,22.35
2022-09-12T21:44:55.937Z,22.35
2022-09-12T21:47:26.001Z,22.35
2022-09-12T21:49:56.639Z,22.36
2022-09-12T21:52:26.611Z,22.35
2022-09-12T21:54:57.795Z,22.37
2022-09-12T21:57:27.778Z,22.38
2022-09-12T21:59:57.142Z,22.42
2022-09-12T22:02:30.942Z,22.41
2022-09-12T22:05:01.195Z,22.41
2022-09-12T22:07:31.644Z,22.45
2022-09-12T22:10:01.929Z,22.45
2022-09-12T22:12:32.611Z,22.46
2022-09-12T22:15:17.446Z,22.48
2022-09-12T22:17:47.777Z,22.49
2022-09-12T22:20:18.257Z,22.51
2022-09-12T22:23:06.106Z,22.53
2022-09-12T22:25:36.448Z,22.55
2022-09-12T22:28:06.515Z,22.53
2022-09-12T22:30:36.716Z,22.52
2022-09-12T22:33:06.825Z,22.54
2022-09-12T22:35:37.607Z,22.52
2022-09-12T22:38:07.921Z,22.54
2022-09-12T22:40:38.218Z,22.55
2022-09-12T22:43:09.199Z,22.54
2022-09-12T22:45:41.885Z,22.58
2022-09-12T22:48:12.693Z,22.58
2022-09-12T22:50:43.633Z,22.61
2022-09-12T22:53:13.931Z,22.63
2022-09-12T22:55:48.021Z,22.64
2022-09-12T22:58:18.382Z,22.68
2022-09-12T23:00:51.439Z,22.72
2022-09-12T23:03:22.789Z,22.76
2022-09-12T23:05:53.819Z,22.78
2022-09-12T23:08:24.054Z,22.80
2022-09-12T23:11:01.186Z,22.83
2022-09-12T23:13:32.222Z,22.87
2022-09-12T23:16:03.978Z,22.89
2022-09-12T23:18:39.314Z,22.94
2022-09-12T23:21:12.519Z,22.97
2022-09-12T23:23:44.101Z,22.99
2022-09-12T23:26:17.141Z,23.04
2022-09-12T23:29:02.469Z,23.06
2022-09-12T23:31:35.261Z,23.11
2022-09-12T23:34:07.550Z,23.13
2022-09-12T23:36:38.271Z,23.17
2022-09-12T23:39:08.652Z,23.21
2022-09-12T23:41:39.457Z,23.27
2022-09-12T23:44:10.140Z,23.30
2022-09-12T23:46:41.468Z,23.34
2022-09-12T23:49:12.039Z,23.39
2022-09-12T23:51:42.642Z,23.43
2022-09-12T23:54:12.571Z,23.49
2022-09-12T23:56:42.572Z,23.53
2022-09-12T23:59:12.544Z,23.58
